createdAt,value
2024-01-21T00:00:37.964Z,-4.92
2024-01-21T00:05:51.866Z,-4.97
2024-01-21T00:10:55.260Z,-5.01
2024-01-21T00:15:58.977Z,-5.01
2024-01-21T00:21:02.100Z,-5.05
2024-01-21T00:26:05.738Z,-5.08
2024-01-21T00:31:08.889Z,-5.04
2024-01-21T00:36:21.213Z,-5.18
2024-01-21T00:41:24.239Z,-5.14
2024-01-21T00:46:27.149Z,-5.18
2024-01-21T00:51:30.390Z,-5.19
2024-01-21T00:56:33.797Z,-5.21
2024-01-21T01:01:39.848Z,-5.27
2024-01-21T01:06:43.770Z,-5.34
2024-01-21T01:11:46.911Z,-5.29
2024-01-21T01:16:49.946Z,-5.23
2024-01-21T01:21:53.451Z,-5.30
2024-01-21T01:26:56.575Z,-5.23
2024-01-21T01:31:59.631Z,-5.36
2024-01-21T01:37:02.642Z,-5.34
2024-01-21T01:42:05.926Z,-5.29
2024-01-21T01:47:10.159Z,-5.28
2024-01-21T01:52:16.958Z,-5.49
2024-01-21T01:57:22.037Z,-5.48
2024-01-21T02:02:25.430Z,-5.60
2024-01-21T02:07:28.640Z,-5.67
2024-01-21T02:12:44.691Z,-5.80
2024-01-21T02:17:50.374Z,-5.96
2024-01-21T02:22:58.187Z,-5.88
2024-01-21T02:28:01.313Z,-6.01
2024-01-21T02:33:04.546Z,-6.07
2024-01-21T02:38:07.677Z,-6.11
2024-01-21T02:43:29.222Z,-6.30
2024-01-21T02:48:32.255Z,-6.45
2024-01-21T02:53:35.290Z,-6.54
2024-01-21T02:58:38.719Z,-6.69
2024-01-21T03:03:41.655Z,-6.76
2024-01-21T03:08:44.857Z,-6.90
2024-01-21T03:13:47.935Z,-6.92
2024-01-21T03:18:50.960Z,-7.13
2024-01-21T03:23:54.061Z,-7.22
2024-01-21T03:28:58.453Z,-7.34
2024-01-21T03:34:01.768Z,-7.45
2024-01-21T03:39:05.154Z,-7.51
2024-01-21T03:44:08.233Z,-7.55
2024-01-21T03:49:11.347Z,-7.50
2024-01-21T03:54:14.489Z,-7.50
2024-01-21T03:59:18.505Z,-7.50
2024-01-21T04:04:21.458Z,-7.51
2024-01-21T04:09:25.552Z,-7.59
2024-01-21T04:14:28.585Z,-7.58
2024-01-21T04:19:32.034Z,-7.48
2024-01-21T04:24:53.576Z,-7.51
2024-01-21T04:29:56.503Z,-7.50
2024-01-21T04:34:59.695Z,-7.56
2024-01-21T04:40:02.680Z,-7.52
2024-01-21T04:45:08.335Z,-7.42
2024-01-21T04:50:13.788Z,-7.40
2024-01-21T04:55:16.829Z,-7.32
2024-01-21T05:00:21.878Z,-7.27
2024-01-21T05:05:25.117Z,-7.26
2024-01-21T05:10:28.204Z,-7.29
2024-01-21T05:15:31.179Z,-7.33
2024-01-21T05:20:34.288Z,-7.31
2024-01-21T05:25:37.390Z,-7.30
2024-01-21T05:30:40.437Z,-7.33
2024-01-21T05:35:43.560Z,-7.27
2024-01-21T05:40:46.755Z,-7.31
2024-01-21T05:45:49.913Z,-7.21
2024-01-21T05:50:53.002Z,-7.28
2024-01-21T05:55:56.092Z,-7.20
2024-01-21T06:01:00.317Z,-6.89
2024-01-21T06:06:03.465Z,-6.86
2024-01-21T06:11:06.716Z,-6.91
2024-01-21T06:16:09.834Z,-6.94
2024-01-21T06:21:12.937Z,-6.90
2024-01-21T06:26:21.311Z,-7.07
2024-01-21T06:31:24.326Z,-6.91
2024-01-21T06:36:27.301Z,-6.89
2024-01-21T06:41:30.444Z,-6.98
2024-01-21T06:46:33.623Z,-6.91
2024-01-21T06:51:44.827Z,-6.84
2024-01-21T06:56:48.099Z,-6.80
2024-01-21T07:01:52.315Z,-6.87
2024-01-21T07:06:55.561Z,-6.79
2024-01-21T07:11:58.672Z,-6.73
2024-01-21T07:17:05.582Z,-6.90
2024-01-21T07:22:08.763Z,-6.87
2024-01-21T07:27:11.668Z,-6.88
2024-01-21T07:32:14.810Z,-6.80
2024-01-21T07:37:17.897Z,-6.85
2024-01-21T07:42:20.787Z,-6.62
2024-01-21T07:47:23.783Z,-6.90
2024-01-21T07:52:26.816Z,-6.64
2024-01-21T07:57:29.957Z,-6.63
2024-01-21T08:02:33.409Z,-6.77
2024-01-21T08:07:36.528Z,-6.58
2024-01-21T08:12:39.898Z,-6.35
2024-01-21T08:17:42.960Z,-6.43
2024-01-21T08:22:46.093Z,-6.50
2024-01-21T08:27:49.261Z,-6.49
2024-01-21T08:32:52.176Z,-6.54
2024-01-21T08:37:55.308Z,-6.46
2024-01-21T08:42:58.744Z,-6.64
2024-01-21T08:48:01.830Z,-6.70
2024-01-21T08:53:05.306Z,-6.76
2024-01-21T08:58:08.454Z,-6.80
2024-01-21T09:03:13.659Z,-6.79
2024-01-21T09:08:16.860Z,-6.92
2024-01-21T09:13:20.843Z,-7.03
2024-01-21T09:18:24.118Z,-6.86
2024-01-21T09:23:27.654Z,-6.81
2024-01-21T09:28:30.706Z,-6.43
2024-01-21T09:33:33.933Z,-6.52
2024-01-21T09:38:37.007Z,-6.24
2024-01-21T09:43:45.782Z,-6.45
2024-01-21T09:48:52.516Z,-6.63
2024-01-21T09:53:55.711Z,-6.53
2024-01-21T09:59:00.444Z,-6.49
2024-01-21T10:04:04.687Z,-6.54
2024-01-21T10:09:19.576Z,-6.50
2024-01-21T10:14:22.749Z,-6.30
2024-01-21T10:19:35.895Z,-6.58
2024-01-21T10:24:40.782Z,-6.65
2024-01-21T10:29:45.764Z,-6.56
2024-01-21T10:34:53.587Z,-6.59
2024-01-21T10:39:57.714Z,-6.71
2024-01-21T10:45:03.136Z,-6.73
2024-01-21T10:50:09.671Z,-6.50
2024-01-21T10:55:12.847Z,-7.03
2024-01-21T11:00:19.230Z,-7.28
2024-01-21T11:05:25.872Z,-7.25
2024-01-21T11:10:30.193Z,-7.47
2024-01-21T11:15:33.464Z,-7.66
2024-01-21T11:20:36.585Z,-7.67
2024-01-21T11:25:39.721Z,-7.72
2024-01-21T11:30:42.794Z,-7.78
2024-01-21T11:35:45.759Z,-7.90
2024-01-21T11:41:06.658Z,-7.92
2024-01-21T11:46:10.847Z,-8.08
2024-01-21T11:51:13.965Z,-8.04
2024-01-21T11:56:17.175Z,-8.15
2024-01-21T12:01:21.970Z,-8.23
2024-01-21T12:06:26.211Z,-8.30
2024-01-21T12:11:39.200Z,-8.47
2024-01-21T12:16:45.721Z,-8.61
2024-01-21T12:21:49.585Z,-8.56
2024-01-21T12:26:56.566Z,-8.69
2024-01-21T12:32:18.515Z,-8.84
2024-01-21T12:37:21.826Z,-8.84
2024-01-21T12:42:24.878Z,-8.94
2024-01-21T12:47:27.855Z,-8.88
2024-01-21T12:52:30.976Z,-8.84
2024-01-21T12:57:34.548Z,-8.78
2024-01-21T13:02:40.073Z,-9.08
2024-01-21T13:07:43.808Z,-9.32
2024-01-21T13:12:47.142Z,-9.47
2024-01-21T13:17:52.409Z,-9.70
2024-01-21T13:22:55.510Z,-9.73
2024-01-21T13:28:16.848Z,-9.85
2024-01-21T13:33:29.835Z,-10.03
2024-01-21T13:38:35.309Z,-10.18
2024-01-21T13:43:38.534Z,-10.09
2024-01-21T13:48:41.817Z,-10.18
2024-01-21T13:53:48.085Z,-10.22
2024-01-21T13:58:51.022Z,-10.26
2024-01-21T14:03:54.151Z,-10.31
2024-01-21T14:08:57.475Z,-10.33
2024-01-21T14:14:00.779Z,-10.40
2024-01-21T14:19:04.473Z,-10.41
2024-01-21T14:24:07.556Z,-10.48
2024-01-21T14:29:36.057Z,-10.55
2024-01-21T14:34:39.098Z,-10.62
2024-01-21T14:39:42.211Z,-10.75
2024-01-21T14:44:45.263Z,-10.80
2024-01-21T14:49:48.435Z,-10.78
2024-01-21T14:54:51.509Z,-10.88
2024-01-21T14:59:54.780Z,-10.91
2024-01-21T15:04:57.974Z,-10.95
2024-01-21T15:10:01.583Z,-10.98
2024-01-21T15:15:29.729Z,-11.06
2024-01-21T15:20:33.106Z,-11.08
2024-01-21T15:25:36.263Z,-11.15
2024-01-21T15:30:44.442Z,-11.19
2024-01-21T15:35:47.622Z,-11.25
2024-01-21T15:40:50.781Z,-11.22
2024-01-21T15:45:53.989Z,-11.24
2024-01-21T15:50:58.799Z,-11.37
2024-01-21T15:56:01.818Z,-11.33
2024-01-21T16:01:05.184Z,-11.41
2024-01-21T16:06:08.296Z,-11.51
2024-01-21T16:11:32.357Z,-11.51
2024-01-21T16:16:35.515Z,-11.61
2024-01-21T16:21:38.726Z,-11.67
2024-01-21T16:26:42.449Z,-11.74
2024-01-21T16:31:46.090Z,-11.72
2024-01-21T16:36:49.196Z,-11.78
2024-01-21T16:41:52.248Z,-11.83
2024-01-21T16:46:55.365Z,-11.87
2024-01-21T16:52:08.338Z,-11.95
2024-01-21T16:57:11.611Z,-11.95
2024-01-21T17:02:19.400Z,-12.00
2024-01-21T17:07:22.738Z,-12.03
2024-01-21T17:12:34.318Z,-12.11
2024-01-21T17:17:41.870Z,-12.13
2024-01-21T17:22:45.057Z,-12.18
2024-01-21T17:27:48.170Z,-12.29
2024-01-21T17:32:51.280Z,-12.28
2024-01-21T17:37:54.350Z,-12.35
2024-01-21T17:42:57.181Z,-12.33
2024-01-21T17:48:00.351Z,-12.46
2024-01-21T17:53:03.652Z,-12.55
2024-01-21T17:58:06.671Z,-12.58
2024-01-21T18:03:09.975Z,-12.60
2024-01-21T18:08:13.393Z,-12.65
2024-01-21T18:13:16.952Z,-12.73
2024-01-21T18:18:24.994Z,-12.73
2024-01-21T18:23:30.001Z,-12.81
2024-01-21T18:28:33.023Z,-12.77
2024-01-21T18:33:38.250Z,-12.86
2024-01-21T18:38:42.101Z,-12.89
2024-01-21T18:43:45.013Z,-12.99
2024-01-21T18:48:48.356Z,-12.91
2024-01-21T18:53:51.479Z,-13.03
2024-01-21T18:58:55.785Z,-13.17
2024-01-21T19:03:59.075Z,-13.24
2024-01-21T19:09:02.370Z,-13.26
2024-01-21T19:14:05.759Z,-13.30
2024-01-21T19:19:13.472Z,-13.30
2024-01-21T19:24:16.908Z,-13.32
2024-01-21T19:29:20.006Z,-13.21
2024-01-21T19:34:23.377Z,-13.17
2024-01-21T19:39:26.380Z,-13.27
2024-01-21T19:44:30.595Z,-13.31
2024-01-21T19:49:33.787Z,-13.38
2024-01-21T19:54:37.679Z,-13.27
2024-01-21T19:59:41.368Z,-13.27
2024-01-21T20:04:44.504Z,-13.39
2024-01-21T20:09:47.419Z,-13.35
2024-01-21T20:14:50.758Z,-13.30
2024-01-21T20:19:53.814Z,-13.28
2024-01-21T20:24:57.146Z,-13.41
2024-01-21T20:30:06.053Z,-13.33
2024-01-21T20:35:10.498Z,-13.11
2024-01-21T20:40:13.632Z,-13.09
2024-01-21T20:45:16.828Z,-13.00
2024-01-21T20:50:19.965Z,-12.99
2024-01-21T20:55:34.125Z,-13.08
2024-01-21T21:00:37.222Z,-13.05
2024-01-21T21:05:40.498Z,-13.06
2024-01-21T21:10:43.487Z,-12.98
2024-01-21T21:15:46.644Z,-13.02
2024-01-21T21:20:49.754Z,-13.02
2024-01-21T21:25:52.910Z,-13.08
2024-01-21T21:30:55.944Z,-13.21
2024-01-21T21:35:59.604Z,-13.11
2024-01-21T21:41:21.159Z,-13.21
2024-01-21T21:46:24.332Z,-13.24
2024-01-21T21:51:27.942Z,-13.29
2024-01-21T21:56:31.083Z,-13.09
2024-01-21T22:01:34.079Z,-13.09
2024-01-21T22:06:37.680Z,-13.13
2024-01-21T22:11:40.917Z,-13.08
2024-01-21T22:16:44.010Z,-13.13
2024-01-21T22:21:48.424Z,-13.17
2024-01-21T22:26:52.601Z,-13.10
2024-01-21T22:31:56.209Z,-13.04
2024-01-21T22:36:59.145Z,-13.06
2024-01-21T22:42:02.275Z,-13.43
2024-01-21T22:47:06.027Z,-13.42
2024-01-21T22:52:09.191Z,-13.52
2024-01-21T22:57:12.193Z,-13.46
2024-01-21T23:02:15.505Z,-13.52
2024-01-21T23:07:18.944Z,-13.50
2024-01-21T23:12:21.857Z,-13.65
2024-01-21T23:17:25.177Z,-13.61
2024-01-21T23:22:28.319Z,-13.55
2024-01-21T23:27:31.710Z,-13.67
2024-01-21T23:32:34.807Z,-13.79
2024-01-21T23:37:38.043Z,-13.95
2024-01-21T23:42:41.053Z,-14.03
2024-01-21T23:47:44.188Z,-13.86
2024-01-21T23:52:47.143Z,-13.93
2024-01-21T23:57:50.298Z,-13.85
